createdAt,value
2019-01-26T00:01:17.673Z,99.90
2019-01-26T00:03:47.302Z,99.90
2019-01-26T00:06:16.944Z,99.90
2019-01-26T00:08:46.572Z,99.90
2019-01-26T00:11:16.224Z,99.90
2019-01-26T00:13:45.857Z,99.90
2019-01-26T00:16:20.967Z,99.90
2019-01-26T00:18:46.882Z,99.90
2019-01-26T00:21:16.579Z,99.90
2019-01-26T00:23:46.213Z,99.90
2019-01-26T00:26:15.869Z,99.90
2019-01-26T00:28:45.499Z,99.90
2019-01-26T00:31:15.240Z,99.90
2019-01-26T00:33:44.867Z,99.90
2019-01-26T00:36:14.518Z,99.90
2019-01-26T00:38:44.131Z,99.90
2019-01-26T00:41:13.836Z,99.90
2019-01-26T00:43:43.469Z,99.90
2019-01-26T00:46:19.143Z,99.90
2019-01-26T00:48:48.777Z,99.90
2019-01-26T00:51:18.428Z,99.90
2019-01-26T00:53:48.047Z,99.90
2019-01-26T00:56:17.702Z,99.90
2019-01-26T00:58:47.327Z,99.90
2019-01-26T01:01:17.045Z,99.90
2019-01-26T01:03:46.739Z,99.90
2019-01-26T01:06:16.389Z,99.90
2019-01-26T01:08:46.093Z,99.90
2019-01-26T01:11:15.777Z,99.90
2019-01-26T01:13:45.403Z,99.90
2019-01-26T01:16:15.064Z,99.90
2019-01-26T01:18:44.684Z,99.90
2019-01-26T01:21:14.336Z,99.90
2019-01-26T01:23:44.024Z,99.90
2019-01-26T01:26:13.697Z,99.90
2019-01-26T01:28:43.318Z,99.90
2019-01-26T01:31:14.247Z,99.90
2019-01-26T01:33:43.876Z,99.90
2019-01-26T01:36:13.525Z,99.90
2019-01-26T01:38:43.146Z,99.70
2019-01-26T01:41:12.935Z,98.80
2019-01-26T01:43:42.556Z,99.20
2019-01-26T01:46:12.215Z,99.50
2019-01-26T01:48:41.836Z,99.20
2019-01-26T01:51:11.631Z,98.60
2019-01-26T01:54:00.684Z,97.70
2019-01-26T01:56:30.323Z,97.10
2019-01-26T01:58:59.944Z,96.70
2019-01-26T02:01:29.587Z,97.80
2019-01-26T02:03:59.207Z,99.10
2019-01-26T02:06:28.869Z,97.10
2019-01-26T02:08:58.496Z,97.60
2019-01-26T02:11:28.211Z,97.30
2019-01-26T02:13:57.856Z,96.10
2019-01-26T02:16:27.480Z,94.80
2019-01-26T02:18:57.188Z,94.90
2019-01-26T02:21:26.809Z,95.70
2019-01-26T02:23:56.452Z,96.30
2019-01-26T02:26:26.073Z,95.20
2019-01-26T02:28:55.718Z,95.40
2019-01-26T02:31:25.348Z,95.80
2019-01-26T02:33:55.014Z,97.20
2019-01-26T02:36:24.635Z,98.50
2019-01-26T02:38:54.276Z,99.90
2019-01-26T02:41:23.901Z,99.90
2019-01-26T02:43:54.713Z,99.90
2019-01-26T02:46:24.335Z,99.90
2019-01-26T02:48:53.980Z,99.90
2019-01-26T02:51:23.605Z,99.90
2019-01-26T02:53:53.257Z,99.90
2019-01-26T02:56:22.876Z,99.90
2019-01-26T02:58:52.528Z,99.70
2019-01-26T03:01:22.189Z,99.90
2019-01-26T03:03:51.859Z,99.90
2019-01-26T03:06:21.485Z,99.90
2019-01-26T03:08:51.115Z,99.90
2019-01-26T03:11:20.732Z,99.80
2019-01-26T03:13:50.384Z,99.90
2019-01-26T03:16:20.344Z,99.90
2019-01-26T03:18:49.997Z,99.90
2019-01-26T03:21:19.625Z,99.90
2019-01-26T03:23:49.438Z,99.90
2019-01-26T03:26:19.057Z,99.90
2019-01-26T03:28:48.720Z,99.90
2019-01-26T03:31:18.351Z,99.90
2019-01-26T03:33:48.000Z,99.90
2019-01-26T03:36:17.633Z,99.90
2019-01-26T03:38:47.257Z,99.90
2019-01-26T03:41:16.964Z,99.90
2019-01-26T03:43:46.597Z,99.90
2019-01-26T03:46:16.300Z,99.90
2019-01-26T03:48:45.928Z,99.90
2019-01-26T03:51:15.605Z,99.90
2019-01-26T03:53:45.223Z,99.90
2019-01-26T03:56:15.013Z,99.90
2019-01-26T03:58:44.637Z,99.90
2019-01-26T04:01:14.413Z,99.90
2019-01-26T04:03:44.110Z,99.90
2019-01-26T04:06:13.919Z,99.90
2019-01-26T04:08:43.539Z,99.90
2019-01-26T04:11:13.283Z,99.90
2019-01-26T04:13:42.970Z,99.90
2019-01-26T04:16:12.676Z,99.90
2019-01-26T04:18:42.373Z,99.90
2019-01-26T04:21:12.263Z,99.90
2019-01-26T04:23:41.887Z,99.90
2019-01-26T04:26:11.645Z,99.90
2019-01-26T04:28:41.264Z,99.90
2019-01-26T04:31:10.916Z,99.90
2019-01-26T04:33:40.536Z,99.90
2019-01-26T04:36:10.174Z,99.90
2019-01-26T04:38:39.805Z,99.90
2019-01-26T04:41:09.747Z,99.90
2019-01-26T04:43:39.369Z,99.90
2019-01-26T04:46:09.080Z,99.90
2019-01-26T04:48:38.705Z,99.90
2019-01-26T04:51:08.521Z,99.90
2019-01-26T04:53:38.144Z,99.90
2019-01-26T04:56:07.793Z,99.90
2019-01-26T04:58:37.413Z,99.90
2019-01-26T05:01:07.059Z,99.90
2019-01-26T05:03:36.680Z,99.90
2019-01-26T05:06:06.393Z,99.90
2019-01-26T05:08:36.096Z,99.90
2019-01-26T05:11:05.869Z,99.90
2019-01-26T05:13:35.499Z,99.90
2019-01-26T05:16:05.285Z,99.90
2019-01-26T05:18:34.986Z,99.90
2019-01-26T05:21:04.895Z,99.90
2019-01-26T05:23:34.516Z,99.90
2019-01-26T05:26:04.604Z,99.90
2019-01-26T05:28:34.323Z,99.90
2019-01-26T05:31:04.036Z,99.90
2019-01-26T05:33:33.735Z,99.90
2019-01-26T05:36:04.253Z,99.90
2019-01-26T05:38:33.981Z,99.90
2019-01-26T05:41:03.793Z,99.90
2019-01-26T05:43:33.417Z,99.90
2019-01-26T05:46:03.132Z,99.90
2019-01-26T05:48:32.747Z,99.90
2019-01-26T05:51:02.411Z,99.90
2019-01-26T05:53:32.031Z,99.90
2019-01-26T05:56:14.245Z,99.90
2019-01-26T05:58:43.856Z,99.90
2019-01-26T06:01:13.584Z,99.90
2019-01-26T06:03:43.199Z,99.90
2019-01-26T06:06:12.859Z,99.90
2019-01-26T06:08:42.482Z,99.90
2019-01-26T06:11:12.312Z,99.90
2019-01-26T06:13:41.953Z,99.90
2019-01-26T06:16:11.582Z,99.90
2019-01-26T06:18:41.223Z,99.90
2019-01-26T06:21:10.929Z,99.90
2019-01-26T06:23:40.584Z,99.90
2019-01-26T06:26:10.209Z,99.90
2019-01-26T06:28:39.924Z,99.90
2019-01-26T06:31:09.543Z,99.90
2019-01-26T06:33:39.195Z,99.90
2019-01-26T06:36:08.890Z,99.90
2019-01-26T06:38:38.528Z,99.90
2019-01-26T06:41:08.295Z,99.90
2019-01-26T06:43:38.007Z,99.90
2019-01-26T06:46:07.563Z,99.90
2019-01-26T06:48:37.206Z,99.90
2019-01-26T06:51:06.829Z,99.90
2019-01-26T06:53:36.468Z,99.90
2019-01-26T06:56:06.083Z,99.90
2019-01-26T06:58:35.723Z,99.90
2019-01-26T07:01:05.509Z,99.90
2019-01-26T07:03:35.154Z,99.90
2019-01-26T07:06:06.488Z,99.90
2019-01-26T07:08:36.132Z,99.90
2019-01-26T07:11:05.819Z,99.90
2019-01-26T07:13:35.467Z,99.90
2019-01-26T07:16:05.320Z,99.90
2019-01-26T07:18:34.980Z,99.90
2019-01-26T07:21:04.600Z,99.90
2019-01-26T07:23:34.270Z,99.90
2019-01-26T07:26:03.960Z,99.90
2019-01-26T07:28:33.605Z,99.90
2019-01-26T07:31:03.326Z,99.90
2019-01-26T07:33:32.973Z,99.90
2019-01-26T07:36:02.596Z,99.90
2019-01-26T07:38:32.241Z,99.90
2019-01-26T07:41:01.862Z,99.90
2019-01-26T07:43:31.505Z,99.90
2019-01-26T07:46:01.196Z,99.90
2019-01-26T07:48:30.837Z,99.90
2019-01-26T07:51:00.686Z,99.90
2019-01-26T07:53:30.332Z,99.90
2019-01-26T07:55:59.944Z,99.90
2019-01-26T07:58:29.586Z,99.90
2019-01-26T08:00:59.196Z,99.90
2019-01-26T08:03:28.907Z,99.90
2019-01-26T08:05:58.532Z,99.90
2019-01-26T08:08:28.171Z,99.90
2019-01-26T08:10:57.794Z,99.90
2019-01-26T08:13:27.436Z,99.90
2019-01-26T08:15:57.120Z,99.90
2019-01-26T08:18:26.997Z,99.90
2019-01-26T08:20:56.612Z,99.90
2019-01-26T08:23:26.726Z,99.90
2019-01-26T08:25:56.373Z,99.90
2019-01-26T08:28:26.012Z,99.90
2019-01-26T08:30:55.630Z,99.90
2019-01-26T08:33:25.593Z,99.90
2019-01-26T08:35:55.212Z,99.90
2019-01-26T08:38:24.917Z,99.90
2019-01-26T08:40:54.704Z,99.90
2019-01-26T08:43:24.636Z,99.90
2019-01-26T08:45:54.415Z,99.90
2019-01-26T08:48:30.934Z,99.90
2019-01-26T08:50:55.383Z,99.90
2019-01-26T08:53:25.000Z,99.90
2019-01-26T08:55:54.639Z,99.90
2019-01-26T08:58:24.261Z,99.90
2019-01-26T09:00:53.981Z,99.90
2019-01-26T09:03:31.173Z,99.90
2019-01-26T09:06:02.456Z,99.90
2019-01-26T09:08:32.204Z,99.90
2019-01-26T09:11:01.913Z,99.90
2019-01-26T09:13:31.527Z,99.90
2019-01-26T09:16:01.241Z,99.90
2019-01-26T09:18:30.928Z,99.90
2019-01-26T09:21:00.640Z,99.90
2019-01-26T09:23:30.330Z,99.90
2019-01-26T09:25:59.968Z,99.90
2019-01-26T09:28:29.659Z,99.90
2019-01-26T09:30:59.372Z,99.90
2019-01-26T09:33:28.988Z,99.90
2019-01-26T09:35:58.632Z,99.90
2019-01-26T09:38:28.417Z,99.90
2019-01-26T09:40:58.161Z,99.90
2019-01-26T09:43:27.839Z,99.90
2019-01-26T09:45:57.480Z,99.90
2019-01-26T09:48:27.161Z,99.90
2019-01-26T09:50:56.869Z,99.90
2019-01-26T09:53:26.480Z,99.90
2019-01-26T09:55:56.150Z,99.90
2019-01-26T09:58:25.752Z,99.90
2019-01-26T10:00:55.424Z,99.90
2019-01-26T10:03:25.042Z,99.90
2019-01-26T10:05:54.682Z,99.90
2019-01-26T10:08:24.298Z,99.90
2019-01-26T10:10:56.013Z,99.90
2019-01-26T10:13:25.377Z,99.90
2019-01-26T10:15:55.166Z,99.90
2019-01-26T10:18:24.776Z,99.90
2019-01-26T10:20:54.608Z,99.90
2019-01-26T10:23:24.295Z,99.90
2019-01-26T10:25:53.948Z,99.90
2019-01-26T10:28:23.560Z,99.90
2019-01-26T10:30:54.845Z,99.90
2019-01-26T10:33:24.536Z,99.90
2019-01-26T10:35:58.536Z,99.90
2019-01-26T10:38:28.155Z,99.90
2019-01-26T10:40:59.560Z,99.90
2019-01-26T10:43:30.820Z,99.90
2019-01-26T10:46:00.472Z,99.90
2019-01-26T10:48:30.102Z,99.90
2019-01-26T10:51:00.203Z,99.90
2019-01-26T10:53:29.888Z,99.90
2019-01-26T10:55:59.527Z,99.90
2019-01-26T10:58:29.149Z,99.90
2019-01-26T11:00:58.966Z,99.90
2019-01-26T11:03:28.569Z,99.90
2019-01-26T11:05:58.337Z,99.90
2019-01-26T11:08:27.960Z,99.90
2019-01-26T11:10:57.633Z,99.90
2019-01-26T11:13:27.276Z,99.90
2019-01-26T11:15:56.916Z,99.90
2019-01-26T11:18:26.570Z,99.90
2019-01-26T11:20:56.182Z,99.90
2019-01-26T11:23:25.821Z,99.90
2019-01-26T11:25:55.440Z,99.90
2019-01-26T11:28:25.089Z,99.90
2019-01-26T11:30:54.771Z,99.90
2019-01-26T11:33:24.420Z,99.90
2019-01-26T11:35:54.097Z,99.90
2019-01-26T11:38:23.812Z,99.90
2019-01-26T11:40:53.808Z,99.90
2019-01-26T11:43:23.448Z,99.90
2019-01-26T11:45:54.708Z,99.90
2019-01-26T11:48:25.996Z,99.90
2019-01-26T11:51:03.537Z,99.90
2019-01-26T11:53:33.179Z,99.90
2019-01-26T11:56:04.515Z,99.90
2019-01-26T11:58:34.241Z,99.90
2019-01-26T12:01:21.088Z,99.90
2019-01-26T12:03:52.372Z,99.90
2019-01-26T12:06:26.089Z,99.90
2019-01-26T12:08:55.749Z,99.90
2019-01-26T12:11:27.415Z,99.90
2019-01-26T12:13:57.108Z,99.90
2019-01-26T12:16:27.230Z,99.90
2019-01-26T12:18:57.041Z,99.90
2019-01-26T12:21:26.668Z,99.90
2019-01-26T12:23:56.316Z,99.90
2019-01-26T12:26:26.090Z,99.90
2019-01-26T12:28:55.732Z,99.90
2019-01-26T12:31:25.548Z,99.90
2019-01-26T12:33:55.260Z,99.90
2019-01-26T12:36:25.019Z,99.90
2019-01-26T12:38:54.661Z,99.90
2019-01-26T12:41:24.282Z,99.90
2019-01-26T12:43:53.924Z,99.90
2019-01-26T12:46:23.549Z,99.90
2019-01-26T12:48:53.197Z,99.90
2019-01-26T12:51:23.047Z,99.90
2019-01-26T12:53:52.769Z,99.90
2019-01-26T12:56:22.384Z,99.90
2019-01-26T12:58:52.029Z,99.90
2019-01-26T13:01:21.677Z,99.90
2019-01-26T13:03:51.293Z,99.90
2019-01-26T13:06:20.978Z,99.90
2019-01-26T13:08:50.696Z,99.90
2019-01-26T13:11:21.406Z,99.90
2019-01-26T13:13:54.136Z,99.90
2019-01-26T13:16:24.021Z,99.90
2019-01-26T13:18:56.739Z,99.90
2019-01-26T13:21:26.373Z,99.90
2019-01-26T13:23:56.013Z,99.90
2019-01-26T13:26:25.631Z,99.90
2019-01-26T13:28:55.280Z,99.90
2019-01-26T13:31:25.033Z,99.90
2019-01-26T13:33:54.684Z,99.90
2019-01-26T13:36:24.308Z,99.90
2019-01-26T13:38:54.084Z,99.90
2019-01-26T13:41:23.703Z,99.90
2019-01-26T13:43:53.361Z,99.90
2019-01-26T13:46:22.965Z,99.90
2019-01-26T13:48:52.761Z,99.90
2019-01-26T13:51:22.391Z,99.90
2019-01-26T13:53:52.028Z,99.90
2019-01-26T13:56:21.644Z,99.90
2019-01-26T13:58:51.261Z,99.90
2019-01-26T14:01:20.900Z,99.90
2019-01-26T14:03:50.586Z,99.90
2019-01-26T14:06:20.235Z,99.90
2019-01-26T14:08:50.800Z,99.90
2019-01-26T14:11:20.449Z,99.90
2019-01-26T14:13:50.079Z,99.90
2019-01-26T14:16:19.789Z,99.90
2019-01-26T14:18:49.407Z,99.90
2019-01-26T14:21:19.156Z,99.90
2019-01-26T14:23:48.733Z,99.90
2019-01-26T14:26:18.373Z,99.90
2019-01-26T14:28:47.996Z,99.90
2019-01-26T14:31:17.715Z,99.90
2019-01-26T14:33:47.341Z,99.90
2019-01-26T14:36:17.063Z,99.90
2019-01-26T14:38:46.685Z,99.90
2019-01-26T14:41:17.661Z,99.90
2019-01-26T14:43:47.285Z,99.90
2019-01-26T14:46:16.917Z,99.90
2019-01-26T14:48:46.535Z,99.90
2019-01-26T14:51:16.563Z,99.90
2019-01-26T14:53:47.710Z,99.90
2019-01-26T14:56:17.622Z,99.90
2019-01-26T14:58:47.237Z,99.90
2019-01-26T15:01:16.943Z,99.90
2019-01-26T15:03:46.556Z,99.90
2019-01-26T15:06:16.204Z,99.90
2019-01-26T15:08:45.825Z,99.90
2019-01-26T15:11:15.468Z,99.90
2019-01-26T15:13:45.090Z,99.90
2019-01-26T15:16:14.734Z,99.90
2019-01-26T15:18:44.348Z,99.90
2019-01-26T15:21:14.754Z,99.90
2019-01-26T15:23:44.377Z,99.90
2019-01-26T15:26:14.012Z,99.90
2019-01-26T15:28:43.631Z,99.90
2019-01-26T15:31:13.276Z,99.90
2019-01-26T15:33:42.896Z,99.90
2019-01-26T15:36:12.540Z,99.90
2019-01-26T15:38:42.188Z,99.90
2019-01-26T15:41:12.331Z,99.90
2019-01-26T15:43:41.897Z,99.90
2019-01-26T15:46:11.542Z,99.90
2019-01-26T15:48:41.169Z,99.90
2019-01-26T15:51:10.816Z,99.90
2019-01-26T15:53:40.440Z,99.90
2019-01-26T15:56:10.156Z,99.90
2019-01-26T15:58:39.776Z,99.90
2019-01-26T16:01:09.568Z,99.90
2019-01-26T16:03:39.252Z,99.90
2019-01-26T16:06:08.968Z,99.90
2019-01-26T16:08:38.657Z,99.90
2019-01-26T16:11:08.320Z,99.90
2019-01-26T16:13:37.939Z,99.90
2019-01-26T16:16:07.664Z,99.90
2019-01-26T16:18:37.464Z,99.90
2019-01-26T16:21:07.257Z,99.90
2019-01-26T16:23:36.967Z,99.90
2019-01-26T16:26:07.125Z,99.90
2019-01-26T16:28:36.772Z,99.90
2019-01-26T16:31:06.521Z,99.90
2019-01-26T16:33:36.306Z,99.90
2019-01-26T16:36:06.000Z,99.90
2019-01-26T16:38:35.669Z,99.90
2019-01-26T16:41:05.517Z,99.90
2019-01-26T16:43:35.161Z,99.90
2019-01-26T16:46:05.016Z,99.90
2019-01-26T16:48:34.672Z,99.90
2019-01-26T16:51:04.946Z,99.90
2019-01-26T16:53:34.598Z,99.90
2019-01-26T16:56:04.556Z,99.90
2019-01-26T16:58:34.208Z,99.90
2019-01-26T17:01:03.916Z,99.90
2019-01-26T17:03:33.640Z,99.90
2019-01-26T17:06:03.396Z,99.90
2019-01-26T17:08:33.039Z,99.90
2019-01-26T17:11:02.668Z,99.90
2019-01-26T17:13:32.308Z,99.90
2019-01-26T17:16:01.933Z,99.90
2019-01-26T17:18:31.577Z,99.90
2019-01-26T17:21:01.220Z,99.90
2019-01-26T17:23:30.864Z,99.90
2019-01-26T17:26:00.485Z,99.90
2019-01-26T17:28:30.199Z,99.90
2019-01-26T17:30:59.956Z,99.90
2019-01-26T17:33:29.612Z,99.90
2019-01-26T17:35:59.358Z,99.90
2019-01-26T17:38:28.948Z,99.90
2019-01-26T17:40:58.575Z,99.90
2019-01-26T17:43:28.226Z,99.90
2019-01-26T17:45:57.847Z,99.90
2019-01-26T17:48:27.509Z,99.90
2019-01-26T17:50:58.764Z,99.90
2019-01-26T17:53:28.403Z,99.90
2019-01-26T17:55:58.023Z,99.90
2019-01-26T17:58:27.732Z,99.90
2019-01-26T18:00:57.531Z,99.90
2019-01-26T18:03:27.314Z,99.90
2019-01-26T18:05:56.995Z,99.90
2019-01-26T18:08:26.704Z,99.90
2019-01-26T18:10:56.387Z,99.90
2019-01-26T18:13:26.035Z,99.90
2019-01-26T18:15:55.661Z,99.90
2019-01-26T18:18:25.300Z,99.90
2019-01-26T18:20:54.940Z,99.90
2019-01-26T18:23:25.467Z,99.90
2019-01-26T18:25:55.319Z,99.90
2019-01-26T18:28:25.252Z,99.90
2019-01-26T18:30:54.932Z,99.90
2019-01-26T18:33:24.644Z,99.90
2019-01-26T18:35:54.288Z,99.90
2019-01-26T18:38:23.895Z,99.90
2019-01-26T18:40:53.540Z,99.90
2019-01-26T18:43:23.163Z,99.90
2019-01-26T18:45:52.876Z,99.90
2019-01-26T18:48:22.495Z,99.90
2019-01-26T18:50:56.073Z,99.90
2019-01-26T18:53:23.596Z,99.90
2019-01-26T18:55:53.248Z,99.90
2019-01-26T18:58:22.865Z,99.90
2019-01-26T19:00:52.602Z,99.90
2019-01-26T19:03:28.227Z,99.90
2019-01-26T19:05:59.144Z,99.90
2019-01-26T19:08:28.766Z,99.90
2019-01-26T19:10:58.500Z,99.90
2019-01-26T19:13:28.123Z,99.90
2019-01-26T19:15:57.763Z,99.90
2019-01-26T19:18:27.385Z,99.90
2019-01-26T19:21:02.872Z,99.90
2019-01-26T19:23:30.368Z,99.90
2019-01-26T19:26:00.007Z,99.90
2019-01-26T19:28:29.704Z,99.90
2019-01-26T19:30:59.628Z,99.90
2019-01-26T19:33:29.328Z,99.90
2019-01-26T19:35:58.956Z,99.90
2019-01-26T19:38:28.747Z,99.90
2019-01-26T19:40:58.612Z,99.90
2019-01-26T19:43:28.228Z,99.90
2019-01-26T19:45:57.872Z,99.90
2019-01-26T19:48:27.496Z,99.90
2019-01-26T19:50:57.236Z,99.90
2019-01-26T19:53:26.927Z,99.90
2019-01-26T19:55:56.576Z,99.90
2019-01-26T19:58:26.196Z,99.90
2019-01-26T20:00:55.846Z,99.90
2019-01-26T20:03:25.534Z,99.90
2019-01-26T20:05:55.385Z,99.90
2019-01-26T20:08:25.165Z,99.90
2019-01-26T20:10:54.933Z,99.90
2019-01-26T20:13:24.631Z,99.90
2019-01-26T20:15:54.280Z,99.90
2019-01-26T20:18:23.901Z,99.90
2019-01-26T20:20:53.655Z,99.90
2019-01-26T20:23:23.276Z,99.90
2019-01-26T20:25:52.990Z,99.90
2019-01-26T20:28:22.607Z,99.90
2019-01-26T20:30:52.454Z,99.90
2019-01-26T20:33:22.219Z,99.90
2019-01-26T20:35:53.368Z,99.90
2019-01-26T20:38:23.120Z,99.90
2019-01-26T20:40:52.859Z,99.90
2019-01-26T20:43:22.560Z,99.90
2019-01-26T20:45:52.204Z,99.90
2019-01-26T20:48:21.891Z,99.90
2019-01-26T20:50:51.552Z,99.90
2019-01-26T20:53:21.174Z,99.90
2019-01-26T20:55:50.816Z,99.90
2019-01-26T20:58:20.469Z,99.90
2019-01-26T21:00:50.248Z,99.90
2019-01-26T21:03:19.936Z,99.90
2019-01-26T21:05:49.590Z,99.90
2019-01-26T21:08:19.204Z,99.90
2019-01-26T21:10:49.092Z,99.90
2019-01-26T21:13:18.783Z,99.90
2019-01-26T21:15:48.428Z,99.90
2019-01-26T21:18:18.106Z,99.90
2019-01-26T21:20:47.744Z,99.90
2019-01-26T21:23:17.380Z,99.90
2019-01-26T21:25:47.178Z,99.90
2019-01-26T21:28:16.892Z,99.90
2019-01-26T21:30:46.512Z,99.90
2019-01-26T21:33:16.160Z,99.90
2019-01-26T21:35:45.780Z,99.90
2019-01-26T21:38:15.423Z,99.90
2019-01-26T21:40:45.048Z,99.90
2019-01-26T21:43:14.725Z,99.90
2019-01-26T21:45:44.484Z,99.90
2019-01-26T21:48:14.124Z,99.90
2019-01-26T21:50:43.784Z,99.90
2019-01-26T21:53:13.432Z,99.90
2019-01-26T21:55:43.127Z,99.90
2019-01-26T21:58:12.776Z,99.90
2019-01-26T22:00:42.405Z,99.90
2019-01-26T22:03:12.051Z,99.90
2019-01-26T22:05:41.680Z,99.90
2019-01-26T22:08:11.322Z,99.90
2019-01-26T22:10:40.941Z,99.90
2019-01-26T22:13:10.612Z,99.90
2019-01-26T22:15:40.236Z,99.90
2019-01-26T22:18:09.948Z,99.90
2019-01-26T22:20:39.569Z,99.90
2019-01-26T22:23:09.353Z,99.90
2019-01-26T22:25:39.109Z,99.90
2019-01-26T22:28:08.819Z,99.90
2019-01-26T22:30:38.688Z,99.90
2019-01-26T22:33:08.570Z,99.90
2019-01-26T22:35:38.319Z,99.90
2019-01-26T22:38:07.961Z,99.90
2019-01-26T22:40:37.755Z,99.90
2019-01-26T22:43:07.463Z,99.90
2019-01-26T22:45:37.240Z,99.90
2019-01-26T22:48:06.998Z,99.90
2019-01-26T22:50:36.741Z,99.90
2019-01-26T22:53:06.700Z,99.90
2019-01-26T22:55:36.406Z,99.90
2019-01-26T22:58:06.352Z,99.90
2019-01-26T23:00:54.276Z,99.90
2019-01-26T23:03:29.885Z,99.90
2019-01-26T23:06:31.280Z,99.90
2019-01-26T23:09:05.627Z,99.90
2019-01-26T23:11:59.475Z,99.90
2019-01-26T23:14:43.999Z,99.90
2019-01-26T23:17:33.458Z,99.90
2019-01-26T23:20:06.316Z,99.90
2019-01-26T23:22:53.920Z,99.90
2019-01-26T23:25:38.288Z,99.90
2019-01-26T23:28:17.057Z,99.90
2019-01-26T23:30:55.531Z,99.90
2019-01-26T23:33:25.140Z,99.90
2019-01-26T23:35:54.789Z,99.90
2019-01-26T23:38:24.396Z,99.90
2019-01-26T23:40:54.033Z,99.90
2019-01-26T23:43:23.644Z,99.90
2019-01-26T23:45:53.279Z,99.90
2019-01-26T23:48:22.964Z,99.90
2019-01-26T23:50:52.608Z,99.90
2019-01-26T23:53:22.211Z,99.90
2019-01-26T23:55:51.850Z,99.90
2019-01-26T23:58:21.472Z,99.90
